Chautauqua County-Jamestown Airport Jamestown US
ICAO: KJHW
IATA: JHW
Category: Medium
Scheduled Services: No

Elevation: 1723 ft
TransAlt. 18000 ft.

Airport Communications:
ERIE APP/DEP:126.05
AWOS 3:118.425
BUFFALO RDO:114.7
CTAF/UNICOM:122.7

KJHW Zoom In..

Runways:

(A) RW 07 length 5299 ft width 100 ft
---- / hdg 69

(B) RW 13 length 4500 ft width 100 ft
---- / hdg 129

(C) RW 25 length 5299 ft width 100 ft
ILS 109.70 / hdg 249

(D) RW 31 length 4500 ft width 100 ft
---- / hdg 309

Location; KJHW
Day. 21 / Time. 05.56 Zulu
* Altimeter: 29.96
* Temperature: 21° c. 69.8°f.
* Wind from: 170° Speed 08 kn.
Dewpoint: 15° c.
Visibility: 10 Statute Miles.
Clouds: Scattered 5000 ft.

KJHW 210556Z AUTO 17008KT 10SM SCT050 21/15 A2996 RMK AO2 SLP136 T02060150 10244 20206 58004


Wind From 170°
Speed 08 kn.

 
 
jpsmedia.com for Web Design worldairports.se 2018   terms of use